• Join FlightAware (Why Join?)
  • Login
  • US Flag 
02:43AM EDT


 

Airport Tracker/Info


-or-


 

Live Flight TrackerFlight Track Log ✈ TCF3457 ✈ 21-Jun-2013 ✈ KORD - KATL

Flight Track Log - Related Links

Times and Time Zones

All times are in EDT time to prevent confusion due to time zone crossing. See the TCF3457 flight status page for this flight to view local times or setup timezone preferences in your user account.

Time Position Orientation Groundspeed Altitude Reporting Facility
EDT Latitude Longitude Course Direction KTS MPH feet Rate Location/Type
07:19AM 41.9333 -87.9667 180° South 170 196 3,500  Level Chicago TRACON
07:20AM 41.8833 -88.0167 217° Southwest 251 289 5,900 2,340 Climbing Chicago TRACON
07:21AM 41.8225 -88.0039 171° South 248 285 8,200 2,520 Climbing Chicago Center
07:22AM 41.5689 -87.7134 176° South  Level Estimated
07:22AM 41.7436 -87.9933 174° South 280 322 10,700  Level Chicago Center
07:23AM 41.4786 -87.7955 214° Southwest  Level FlightAware Approximate
07:23AM 41.6597 -87.9636 165° South 309 356 13,400  Level Chicago Center
07:24AM 41.3758 -87.7460 186° South  Level Estimated
07:24AM 41.5747 -87.9336 165° South 314 361 15,700  Level Chicago Center
07:25AM 41.2777 -87.6990 180° South  Level Estimated
07:25AM 41.4797 -87.9008 166° South 346 398 17,600  Level Chicago Center
07:26AM 41.3789 -87.8808 172° South 366 421 19,400 1,800 Climbing Chicago Center
07:27AM 41.2753 -87.8903 184° South 371 427 21,300 1,560 Climbing Chicago Center
07:28AM 41.1681 -87.8908 180° South 379 436 22,600 1,380 Climbing Chicago Center
07:29AM 41.0567 -87.8861 178° South 397 457 24,200 1,380 Climbing Chicago Center
07:31AM 40.9442 -87.8822 179° South 404 465 25,500 1,440 Climbing Chicago Center
07:32AM 40.8044 -87.8778 179° South 418 481 27,200 1,500 Climbing Chicago Center
07:33AM 40.6864 -87.8736 178° South 425 489 28,600 1,380 Climbing Chicago Center
07:34AM 40.5658 -87.8694 178° South 433 498 30,100 1,380 Climbing Chicago Center
07:35AM 40.4456 -87.8667 179° South 435 501 31,500 1,200 Climbing Chicago Center
07:36AM 40.3239 -87.8628 179° South 438 504 32,600 1,140 Climbing Chicago Center
07:37AM 40.1858 -87.8575 178° South 446 513 33,900 1,080 Climbing Chicago Center
07:38AM 40.0786 -87.8544 179° South 445 512 34,700 540 Climbing Indianapolis Center
07:39AM 39.9708 -87.8494 178° South 400 460 35,000 120 Climbing Indianapolis Center
07:40AM 39.8594 -87.8439 178° South 400 460 35,000  Level Indianapolis Center
07:41AM 39.7478 -87.8386 178° South 401 461 35,000  Level Indianapolis Center
07:42AM 39.6378 -87.8344 178° South 399 459 35,000  Level Indianapolis Center
07:43AM 39.5292 -87.8297 178° South 395 455 35,000  Level Indianapolis Center
07:44AM 39.3964 -87.8236 178° South 397 457 35,000  Level Indianapolis Center
07:45AM 39.2864 -87.8194 178° South 397 457 35,000  Level Indianapolis Center
07:46AM 39.1750 -87.8133 178° South 399 459 35,000  Level Indianapolis Center
07:47AM 39.0636 -87.8100 179° South 399 459 35,000  Level Indianapolis Center
07:48AM 38.9511 -87.8050 178° South 403 464 35,000  Level Indianapolis Center
07:50AM 38.7253 -87.7958 178° South 405 466 35,000  Level Indianapolis Center
07:51AM 38.5897 -87.7889 178° South 406 467 35,000  Level Indianapolis Center
07:52AM 38.4828 -87.7439 162° South 404 465 35,000  Level Indianapolis Center
07:53AM 38.3750 -87.6947 160° South 409 471 35,000  Level Indianapolis Center
07:54AM 38.2681 -87.6444 160° South 410 472 35,000  Level Indianapolis Center
07:55AM 38.1603 -87.5956 160° South 413 475 35,000  Level Indianapolis Center
07:56AM 38.0517 -87.5450 160° South 416 479 35,000  Level Indianapolis Center
07:57AM 37.9433 -87.4942 160° South 416 479 35,000  Level Indianapolis Center
07:58AM 37.8136 -87.4347 160° South 412 474 35,000  Level Indianapolis Center
07:59AM 37.7131 -87.3886 160° South 415 478 35,000  Level Indianapolis Center
08:00AM 37.6036 -87.3394 160° South 414 476 35,000  Level Indianapolis Center
08:01AM 37.4925 -87.2897 160° South 419 482 35,000  Level Indianapolis Center
08:02AM 37.3811 -87.2397 160° South 421 484 35,000  Level Indianapolis Center
08:03AM 37.2508 -87.1803 160° South 422 486 35,000  Level Indianapolis Center
08:04AM 37.1403 -87.1303 160° South 420 483 35,000  Level Indianapolis Center
08:05AM 37.0306 -87.0806 160° South 418 481 35,000  Level Indianapolis Center
08:06AM 36.9211 -87.0314 160° South 415 478 35,000  Level Indianapolis Center
08:07AM 36.8122 -86.9828 160° South 413 475 35,000  Level Indianapolis Center
08:08AM 36.7044 -86.9347 160° South 408 470 35,000  Level Indianapolis Center
08:09AM 36.5808 -86.8789 160° South 415 478 35,000 -180 Level Memphis Center
08:10AM 36.4772 -86.8292 159° South 415 478 34,700 -420 Descending Memphis Center
08:11AM 36.3675 -86.7772 159° South 415 478 34,200 -660 Descending Memphis Center
08:12AM 36.2514 -86.7308 162° South 425 489 33,400 -600 Descending Memphis Center
08:13AM 36.1417 -86.6869 162° South 424 488 33,000 -240 Descending Memphis Center
08:14AM 36.0456 -86.6117 148° Southeast 411 473 33,000  Level Memphis Center
08:15AM 35.9517 -86.5339 146° Southeast 411 473 33,000  Level Memphis Center
08:16AM 35.8575 -86.4564 146° Southeast 411 473 33,000  Level Memphis Center
08:17AM 35.7653 -86.3814 147° Southeast 406 467 33,000  Level Memphis Center
08:20AM 35.5592 -86.2139 147° Southeast 410 472 33,000  Level Atlanta Center
08:21AM 35.4706 -86.1503 150° Southeast 410 472 33,000 -300 Level Atlanta Center
08:22AM 35.3700 -86.0611 144° Southeast 405 466 32,500 -600 Descending Atlanta Center
08:23AM 35.2753 -85.9850 147° Southeast 411 473 31,800 -660 Descending Atlanta Center
08:24AM 35.1678 -85.9089 150° Southeast 436 502 31,200 -420 Descending Atlanta Center
08:25AM 35.0564 -85.8200 147° Southeast 458 527 31,000 -900 Descending Atlanta Center
08:26AM 34.9450 -85.7314 147° Southeast 470 541 29,500 -1,560 Descending Atlanta Center
08:27AM 34.8317 -85.6406 147° Southeast 476 548 27,900 -1,740 Descending Atlanta Center
08:28AM 34.7178 -85.5525 148° Southeast 481 554 26,100 -2,400 Descending Atlanta Center
08:29AM 34.6083 -85.4672 147° Southeast 481 554 23,200 -3,120 Descending Atlanta Center
08:30AM 34.5089 -85.3875 147° Southeast 458 527 19,900 -2,880 Descending Atlanta Center
08:31AM 34.4117 -85.3103 147° Southeast 436 502 17,500 -2,400 Descending Atlanta Center
08:32AM 34.3228 -85.2436 148° Southeast 400 460 15,100 -2,040 Descending Atlanta Center
08:33AM 34.2356 -85.1769 148° Southeast 380 437 13,500 -1,080 Descending Atlanta Center
08:34AM 34.1528 -85.1081 145° Southeast 370 426 13,000 -300 Descending Atlanta Center
08:35AM 34.0825 -85.0194 134° Southeast 365 420 13,000 -540 Level Atlanta Center
08:36AM 34.0144 -84.9286 132° Southeast 365 420 12,000 -1,080 Descending Atlanta Center
08:37AM 33.9269 -84.9000 165° South 337 388 10,900 -1,080 Descending Atlanta Center
08:38AM 33.8433 -84.9017 181° South 301 346 9,900 -1,020 Descending Atlanta Center
08:39AM 33.7600 -84.8958 177° South 301 346 8,900 -1,260 Descending Atlanta Center
08:40AM 33.6806 -84.8950 179° South 296 341 7,400 -1,020 Descending Atlanta Center
08:41AM 33.6353 -84.8347 132° Southeast 253 291 6,900 -960 Descending Atlanta Center
08:42AM 33.6333 -84.7333 91° East 247 284 5,500 -1,140 Descending Atlanta TRACON
08:43AM 33.6333 -84.6667 90° East 213 245 4,600 -960 Descending Atlanta TRACON
08:44AM 33.6333 -84.6000 90° East 178 205 3,600 -1,020 Descending Atlanta TRACON